Jennings, Kansas
Current Conditions -  °F | °C
As of 11:53 PM on Monday 26 Jan 2015 (Local Time) from KHLC Reporting Station
Clear Clear  
Wind Chill: 36°   Ceiling: Unl
Heat Index: 41°   Visibility: 10mi
Dew Point: 28°   Wind: 8mph
Humidity: 60%   Direction: 270°W
Pressure: 30.11"   Gusts: NA
Location:  39.68°N, 100.29°W
Report Text: KHLC 270553Z AUTO 27007KT 10SM CLR 05/M02 A3011 RMK AO2 SLP192 T00501022 10167 20039 402220000 53004
Loading
Personal Weather Stations






























Interactive Weather Map New forecast layout! Learn more

10-Day Weather Forecast

Advertisements
Track Severe Weather on mobile